Aguas Blancas, Argentina
Current Conditions -  °F | °C
As of 12:00 PM on Sunday 21 Dec 2014 (Local Time) from SASJ Reporting Station
Broken Clouds Broken Clouds  
Wind Chill: 70°   Ceiling: 10000
Heat Index: 70°   Visibility: 6mi
Dew Point: 57°   Wind: 14mph
Humidity: 64%   Direction: 180°S
Pressure: 29.85"   Gusts: NA
Location:  23.05°S, 64.43°W
Report Text: SASJ 211500Z 18012KT 9999 SCT025 BKN10021/14 Q1011
Loading
Personal Weather Stations






























Interactive Weather Map New forecast layout! Learn more

10-Day Weather Forecast

Advertisements
Track Severe Weather on mobile